sensor_id;sensor_type;location;lat;lon;timestamp;P1;durP1;ratioP1;P2;durP2;ratioP2
21128;SDS011;10722;51.910;8.352;2023-12-04T00:00:41;72.33;;;30.13;;
21128;SDS011;10722;51.910;8.352;2023-12-04T00:03:26;68.07;;;30.37;;
21128;SDS011;10722;51.910;8.352;2023-12-04T00:06:11;68.57;;;30.63;;
21128;SDS011;10722;51.910;8.352;2023-12-04T00:08:56;68.73;;;30.10;;
21128;SDS011;10722;51.910;8.352;2023-12-04T00:11:42;69.03;;;29.20;;
21128;SDS011;10722;51.910;8.352;2023-12-04T00:14:27;68.33;;;29.53;;
21128;SDS011;10722;51.910;8.352;2023-12-04T00:17:12;69.80;;;30.17;;
21128;SDS011;10722;51.910;8.352;2023-12-04T00:19:57;65.13;;;29.50;;
21128;SDS011;10722;51.910;8.352;2023-12-04T00:22:42;69.97;;;29.57;;
21128;SDS011;10722;51.910;8.352;2023-12-04T00:25:27;72.63;;;30.97;;
21128;SDS011;10722;51.910;8.352;2023-12-04T00:28:11;65.07;;;29.43;;
21128;SDS011;10722;51.910;8.352;2023-12-04T00:30:57;69.30;;;29.70;;
21128;SDS011;10722;51.910;8.352;2023-12-04T00:33:42;69.67;;;30.17;;
21128;SDS011;10722;51.910;8.352;2023-12-04T00:36:27;68.30;;;29.60;;
21128;SDS011;10722;51.910;8.352;2023-12-04T00:39:12;69.20;;;28.70;;
21128;SDS011;10722;51.910;8.352;2023-12-04T00:41:57;64.53;;;28.23;;
21128;SDS011;10722;51.910;8.352;2023-12-04T00:44:42;62.50;;;27.83;;
21128;SDS011;10722;51.910;8.352;2023-12-04T00:47:27;65.83;;;28.03;;
21128;SDS011;10722;51.910;8.352;2023-12-04T00:50:13;60.80;;;28.10;;
21128;SDS011;10722;51.910;8.352;2023-12-04T00:52:58;64.77;;;28.20;;
21128;SDS011;10722;51.910;8.352;2023-12-04T00:55:43;61.30;;;27.80;;
21128;SDS011;10722;51.910;8.352;2023-12-04T00:58:28;61.83;;;27.97;;
21128;SDS011;10722;51.910;8.352;2023-12-04T01:01:13;62.23;;;26.57;;
21128;SDS011;10722;51.910;8.352;2023-12-04T01:03:59;61.87;;;27.03;;
21128;SDS011;10722;51.910;8.352;2023-12-04T01:06:44;56.90;;;27.20;;
21128;SDS011;10722;51.910;8.352;2023-12-04T01:09:29;57.10;;;25.73;;
21128;SDS011;10722;51.910;8.352;2023-12-04T01:12:14;60.27;;;27.30;;
21128;SDS011;10722;51.910;8.352;2023-12-04T01:14:59;59.97;;;27.97;;
21128;SDS011;10722;51.910;8.352;2023-12-04T01:17:44;58.40;;;25.60;;
21128;SDS011;10722;51.910;8.352;2023-12-04T01:20:29;60.30;;;26.63;;
21128;SDS011;10722;51.910;8.352;2023-12-04T01:23:15;60.80;;;27.23;;
21128;SDS011;10722;51.910;8.352;2023-12-04T01:26:01;57.00;;;26.07;;
21128;SDS011;10722;51.910;8.352;2023-12-04T01:28:47;56.07;;;25.87;;
21128;SDS011;10722;51.910;8.352;2023-12-04T01:31:34;56.63;;;25.87;;
21128;SDS011;10722;51.910;8.352;2023-12-04T01:34:18;62.10;;;28.03;;
21128;SDS011;10722;51.910;8.352;2023-12-04T01:37:04;59.07;;;26.80;;
21128;SDS011;10722;51.910;8.352;2023-12-04T01:39:49;60.50;;;27.27;;
21128;SDS011;10722;51.910;8.352;2023-12-04T01:42:34;55.27;;;26.57;;
21128;SDS011;10722;51.910;8.352;2023-12-04T01:45:19;57.27;;;26.73;;
21128;SDS011;10722;51.910;8.352;2023-12-04T01:48:04;56.83;;;26.77;;
21128;SDS011;10722;51.910;8.352;2023-12-04T01:50:52;59.17;;;27.70;;
21128;SDS011;10722;51.910;8.352;2023-12-04T01:53:38;59.40;;;27.50;;
21128;SDS011;10722;51.910;8.352;2023-12-04T01:56:24;52.17;;;25.73;;
21128;SDS011;10722;51.910;8.352;2023-12-04T01:59:09;53.50;;;26.70;;
21128;SDS011;10722;51.910;8.352;2023-12-04T02:01:54;53.07;;;25.00;;
21128;SDS011;10722;51.910;8.352;2023-12-04T02:04:40;51.70;;;25.03;;
21128;SDS011;10722;51.910;8.352;2023-12-04T02:07:25;51.23;;;25.13;;
21128;SDS011;10722;51.910;8.352;2023-12-04T02:10:10;51.20;;;25.07;;
21128;SDS011;10722;51.910;8.352;2023-12-04T02:12:55;47.87;;;24.00;;
21128;SDS011;10722;51.910;8.352;2023-12-04T02:15:41;46.10;;;22.77;;
21128;SDS011;10722;51.910;8.352;2023-12-04T02:18:26;48.63;;;23.47;;
21128;SDS011;10722;51.910;8.352;2023-12-04T02:21:11;44.20;;;21.57;;
21128;SDS011;10722;51.910;8.352;2023-12-04T02:23:57;44.07;;;21.70;;
21128;SDS011;10722;51.910;8.352;2023-12-04T02:26:51;43.57;;;22.23;;
21128;SDS011;10722;51.910;8.352;2023-12-04T02:29:40;42.57;;;20.93;;
21128;SDS011;10722;51.910;8.352;2023-12-04T02:32:31;38.60;;;19.53;;
21128;SDS011;10722;51.910;8.352;2023-12-04T02:35:20;43.37;;;21.30;;
21128;SDS011;10722;51.910;8.352;2023-12-04T02:38:07;39.50;;;19.67;;
21128;SDS011;10722;51.910;8.352;2023-12-04T02:40:52;40.23;;;19.93;;
21128;SDS011;10722;51.910;8.352;2023-12-04T02:43:37;39.60;;;20.40;;
21128;SDS011;10722;51.910;8.352;2023-12-04T02:46:22;38.30;;;19.23;;
21128;SDS011;10722;51.910;8.352;2023-12-04T02:49:07;36.97;;;19.03;;
21128;SDS011;10722;51.910;8.352;2023-12-04T02:51:53;36.93;;;18.97;;
21128;SDS011;10722;51.910;8.352;2023-12-04T02:54:38;37.00;;;18.70;;
21128;SDS011;10722;51.910;8.352;2023-12-04T02:57:23;39.07;;;19.90;;
21128;SDS011;10722;51.910;8.352;2023-12-04T03:00:08;36.80;;;18.30;;
21128;SDS011;10722;51.910;8.352;2023-12-04T03:02:53;36.03;;;18.80;;
21128;SDS011;10722;51.910;8.352;2023-12-04T03:05:38;36.50;;;18.87;;
21128;SDS011;10722;51.910;8.352;2023-12-04T03:08:23;36.13;;;19.27;;
21128;SDS011;10722;51.910;8.352;2023-12-04T03:11:08;37.80;;;19.40;;
21128;SDS011;10722;51.910;8.352;2023-12-04T03:13:53;36.10;;;17.97;;
21128;SDS011;10722;51.910;8.352;2023-12-04T03:16:38;36.83;;;18.43;;
21128;SDS011;10722;51.910;8.352;2023-12-04T03:19:22;34.80;;;18.53;;
21128;SDS011;10722;51.910;8.352;2023-12-04T03:22:08;32.73;;;17.13;;
21128;SDS011;10722;51.910;8.352;2023-12-04T03:24:53;33.13;;;18.00;;
21128;SDS011;10722;51.910;8.352;2023-12-04T03:27:39;32.80;;;16.63;;
21128;SDS011;10722;51.910;8.352;2023-12-04T03:30:24;33.23;;;17.57;;
21128;SDS011;10722;51.910;8.352;2023-12-04T03:33:09;34.47;;;17.37;;
21128;SDS011;10722;51.910;8.352;2023-12-04T03:35:55;32.60;;;16.50;;
21128;SDS011;10722;51.910;8.352;2023-12-04T03:38:40;32.03;;;17.80;;
21128;SDS011;10722;51.910;8.352;2023-12-04T03:41:26;34.80;;;18.20;;
21128;SDS011;10722;51.910;8.352;2023-12-04T03:44:11;33.23;;;17.10;;
21128;SDS011;10722;51.910;8.352;2023-12-04T03:46:56;33.03;;;16.77;;
21128;SDS011;10722;51.910;8.352;2023-12-04T03:49:41;32.77;;;16.70;;
21128;SDS011;10722;51.910;8.352;2023-12-04T03:52:26;31.47;;;16.53;;
21128;SDS011;10722;51.910;8.352;2023-12-04T03:55:11;29.20;;;14.80;;
21128;SDS011;10722;51.910;8.352;2023-12-04T03:57:56;30.10;;;16.37;;
21128;SDS011;10722;51.910;8.352;2023-12-04T04:00:42;30.10;;;15.50;;
21128;SDS011;10722;51.910;8.352;2023-12-04T04:03:28;30.33;;;15.83;;
21128;SDS011;10722;51.910;8.352;2023-12-04T04:06:13;31.13;;;15.50;;
21128;SDS011;10722;51.910;8.352;2023-12-04T04:08:58;29.93;;;15.03;;
21128;SDS011;10722;51.910;8.352;2023-12-04T04:11:43;29.23;;;14.90;;
21128;SDS011;10722;51.910;8.352;2023-12-04T04:14:28;30.50;;;15.80;;
21128;SDS011;10722;51.910;8.352;2023-12-04T04:17:13;28.37;;;14.83;;
21128;SDS011;10722;51.910;8.352;2023-12-04T04:19:58;30.23;;;15.13;;
21128;SDS011;10722;51.910;8.352;2023-12-04T04:22:44;30.27;;;14.77;;
21128;SDS011;10722;51.910;8.352;2023-12-04T04:25:28;32.60;;;14.50;;
21128;SDS011;10722;51.910;8.352;2023-12-04T04:28:14;29.47;;;15.00;;
21128;SDS011;10722;51.910;8.352;2023-12-04T04:30:59;28.47;;;14.50;;
21128;SDS011;10722;51.910;8.352;2023-12-04T04:33:44;29.83;;;14.87;;
21128;SDS011;10722;51.910;8.352;2023-12-04T04:36:29;29.13;;;15.07;;
21128;SDS011;10722;51.910;8.352;2023-12-04T04:39:15;28.83;;;13.97;;
21128;SDS011;10722;51.910;8.352;2023-12-04T04:42:00;27.33;;;14.23;;
21128;SDS011;10722;51.910;8.352;2023-12-04T04:44:45;28.67;;;14.27;;
21128;SDS011;10722;51.910;8.352;2023-12-04T04:47:30;30.83;;;14.83;;
21128;SDS011;10722;51.910;8.352;2023-12-04T04:50:15;30.23;;;14.17;;
21128;SDS011;10722;51.910;8.352;2023-12-04T04:53:00;28.67;;;13.63;;
21128;SDS011;10722;51.910;8.352;2023-12-04T04:55:45;25.73;;;13.40;;
21128;SDS011;10722;51.910;8.352;2023-12-04T04:58:33;27.73;;;14.37;;
21128;SDS011;10722;51.910;8.352;2023-12-04T05:01:18;27.07;;;13.73;;
21128;SDS011;10722;51.910;8.352;2023-12-04T05:04:03;26.33;;;13.60;;
21128;SDS011;10722;51.910;8.352;2023-12-04T05:06:49;28.20;;;13.27;;
21128;SDS011;10722;51.910;8.352;2023-12-04T05:09:34;27.83;;;13.20;;
21128;SDS011;10722;51.910;8.352;2023-12-04T05:12:19;27.63;;;13.63;;
21128;SDS011;10722;51.910;8.352;2023-12-04T05:15:04;29.63;;;14.23;;
21128;SDS011;10722;51.910;8.352;2023-12-04T05:17:49;27.53;;;13.40;;
21128;SDS011;10722;51.910;8.352;2023-12-04T05:20:34;26.37;;;12.83;;
21128;SDS011;10722;51.910;8.352;2023-12-04T05:23:19;26.87;;;14.27;;
21128;SDS011;10722;51.910;8.352;2023-12-04T05:26:05;26.60;;;12.30;;
21128;SDS011;10722;51.910;8.352;2023-12-04T05:28:51;24.93;;;12.30;;
21128;SDS011;10722;51.910;8.352;2023-12-04T05:31:35;24.67;;;12.07;;
21128;SDS011;10722;51.910;8.352;2023-12-04T05:34:20;24.77;;;12.43;;
21128;SDS011;10722;51.910;8.352;2023-12-04T05:37:05;26.10;;;13.03;;
21128;SDS011;10722;51.910;8.352;2023-12-04T05:39:50;25.47;;;12.80;;
21128;SDS011;10722;51.910;8.352;2023-12-04T05:42:35;25.73;;;12.27;;
21128;SDS011;10722;51.910;8.352;2023-12-04T05:45:20;25.00;;;11.93;;
21128;SDS011;10722;51.910;8.352;2023-12-04T05:48:05;25.07;;;12.00;;
21128;SDS011;10722;51.910;8.352;2023-12-04T05:50:50;25.70;;;12.53;;
21128;SDS011;10722;51.910;8.352;2023-12-04T05:53:35;26.60;;;11.90;;
21128;SDS011;10722;51.910;8.352;2023-12-04T05:56:20;26.17;;;11.73;;
21128;SDS011;10722;51.910;8.352;2023-12-04T05:59:05;25.10;;;12.40;;
21128;SDS011;10722;51.910;8.352;2023-12-04T06:01:50;23.60;;;12.27;;
21128;SDS011;10722;51.910;8.352;2023-12-04T06:04:35;24.70;;;12.63;;
21128;SDS011;10722;51.910;8.352;2023-12-04T06:07:20;25.83;;;12.00;;
21128;SDS011;10722;51.910;8.352;2023-12-04T06:10:05;26.30;;;12.50;;
21128;SDS011;10722;51.910;8.352;2023-12-04T06:12:51;26.97;;;12.60;;
21128;SDS011;10722;51.910;8.352;2023-12-04T06:15:36;24.67;;;12.30;;
21128;SDS011;10722;51.910;8.352;2023-12-04T06:18:21;24.50;;;12.17;;
21128;SDS011;10722;51.910;8.352;2023-12-04T06:21:07;25.97;;;12.37;;
21128;SDS011;10722;51.910;8.352;2023-12-04T06:23:52;28.47;;;12.97;;
21128;SDS011;10722;51.910;8.352;2023-12-04T06:26:39;24.97;;;12.03;;
21128;SDS011;10722;51.910;8.352;2023-12-04T06:29:27;25.90;;;12.97;;
21128;SDS011;10722;51.910;8.352;2023-12-04T06:32:12;26.23;;;12.97;;
21128;SDS011;10722;51.910;8.352;2023-12-04T06:34:57;26.27;;;12.77;;
21128;SDS011;10722;51.910;8.352;2023-12-04T06:37:43;26.50;;;12.60;;
21128;SDS011;10722;51.910;8.352;2023-12-04T06:40:30;26.20;;;12.57;;
21128;SDS011;10722;51.910;8.352;2023-12-04T06:43:15;27.73;;;13.73;;
21128;SDS011;10722;51.910;8.352;2023-12-04T06:46:01;28.00;;;13.27;;
21128;SDS011;10722;51.910;8.352;2023-12-04T06:48:47;27.77;;;13.67;;
21128;SDS011;10722;51.910;8.352;2023-12-04T06:51:33;27.33;;;13.97;;
21128;SDS011;10722;51.910;8.352;2023-12-04T06:54:18;28.40;;;13.00;;
21128;SDS011;10722;51.910;8.352;2023-12-04T06:57:03;29.30;;;13.67;;
21128;SDS011;10722;51.910;8.352;2023-12-04T06:59:49;25.10;;;12.93;;
21128;SDS011;10722;51.910;8.352;2023-12-04T07:02:34;72.27;;;35.90;;
21128;SDS011;10722;51.910;8.352;2023-12-04T07:05:19;28.80;;;14.10;;
21128;SDS011;10722;51.910;8.352;2023-12-04T07:08:05;26.93;;;13.47;;
21128;SDS011;10722;51.910;8.352;2023-12-04T07:10:50;24.97;;;12.67;;
21128;SDS011;10722;51.910;8.352;2023-12-04T07:13:35;26.50;;;12.80;;
21128;SDS011;10722;51.910;8.352;2023-12-04T07:16:20;27.63;;;13.13;;
21128;SDS011;10722;51.910;8.352;2023-12-04T07:19:05;27.27;;;13.03;;
21128;SDS011;10722;51.910;8.352;2023-12-04T07:21:50;26.33;;;13.23;;
21128;SDS011;10722;51.910;8.352;2023-12-04T07:24:36;26.13;;;13.20;;
21128;SDS011;10722;51.910;8.352;2023-12-04T07:27:20;26.03;;;12.63;;
21128;SDS011;10722;51.910;8.352;2023-12-04T07:30:05;25.67;;;12.63;;
21128;SDS011;10722;51.910;8.352;2023-12-04T07:32:51;24.90;;;12.07;;
21128;SDS011;10722;51.910;8.352;2023-12-04T07:35:36;26.47;;;12.23;;
21128;SDS011;10722;51.910;8.352;2023-12-04T07:38:21;25.13;;;11.73;;
21128;SDS011;10722;51.910;8.352;2023-12-04T07:41:08;24.33;;;12.03;;
21128;SDS011;10722;51.910;8.352;2023-12-04T07:43:54;24.83;;;12.50;;
21128;SDS011;10722;51.910;8.352;2023-12-04T07:46:39;27.53;;;12.43;;
21128;SDS011;10722;51.910;8.352;2023-12-04T07:49:24;25.43;;;12.30;;
21128;SDS011;10722;51.910;8.352;2023-12-04T07:52:09;27.93;;;13.33;;
21128;SDS011;10722;51.910;8.352;2023-12-04T07:54:55;27.40;;;12.93;;
21128;SDS011;10722;51.910;8.352;2023-12-04T07:57:39;24.63;;;12.47;;
21128;SDS011;10722;51.910;8.352;2023-12-04T08:00:24;23.43;;;12.13;;
21128;SDS011;10722;51.910;8.352;2023-12-04T08:03:09;24.17;;;11.73;;
21128;SDS011;10722;51.910;8.352;2023-12-04T08:05:55;23.67;;;11.97;;
21128;SDS011;10722;51.910;8.352;2023-12-04T08:08:40;23.70;;;11.73;;
21128;SDS011;10722;51.910;8.352;2023-12-04T08:11:24;26.00;;;11.67;;
21128;SDS011;10722;51.910;8.352;2023-12-04T08:14:09;24.33;;;11.57;;
21128;SDS011;10722;51.910;8.352;2023-12-04T08:16:54;22.93;;;11.87;;
21128;SDS011;10722;51.910;8.352;2023-12-04T08:19:39;26.17;;;12.60;;
21128;SDS011;10722;51.910;8.352;2023-12-04T08:22:24;22.77;;;10.67;;
21128;SDS011;10722;51.910;8.352;2023-12-04T08:25:09;24.20;;;11.43;;
21128;SDS011;10722;51.910;8.352;2023-12-04T08:27:55;23.87;;;12.17;;
21128;SDS011;10722;51.910;8.352;2023-12-04T08:30:40;23.47;;;11.40;;
21128;SDS011;10722;51.910;8.352;2023-12-04T08:33:25;176.73;;;88.37;;
21128;SDS011;10722;51.910;8.352;2023-12-04T08:36:11;23.97;;;12.37;;
21128;SDS011;10722;51.910;8.352;2023-12-04T08:38:56;24.17;;;11.50;;
21128;SDS011;10722;51.910;8.352;2023-12-04T08:41:44;24.43;;;11.50;;
21128;SDS011;10722;51.910;8.352;2023-12-04T08:44:42;21.57;;;10.73;;
21128;SDS011;10722;51.910;8.352;2023-12-04T08:47:28;27.00;;;13.43;;
21128;SDS011;10722;51.910;8.352;2023-12-04T08:50:12;27.97;;;14.30;;
21128;SDS011;10722;51.910;8.352;2023-12-04T08:52:58;25.03;;;11.93;;
21128;SDS011;10722;51.910;8.352;2023-12-04T08:55:43;22.63;;;11.33;;
21128;SDS011;10722;51.910;8.352;2023-12-04T08:58:29;22.87;;;11.40;;
21128;SDS011;10722;51.910;8.352;2023-12-04T09:01:14;22.70;;;11.13;;
21128;SDS011;10722;51.910;8.352;2023-12-04T09:03:59;23.17;;;11.73;;
21128;SDS011;10722;51.910;8.352;2023-12-04T09:06:45;25.73;;;11.13;;
21128;SDS011;10722;51.910;8.352;2023-12-04T09:09:33;24.67;;;12.40;;
21128;SDS011;10722;51.910;8.352;2023-12-04T09:12:18;24.30;;;11.30;;
21128;SDS011;10722;51.910;8.352;2023-12-04T09:15:04;22.17;;;10.63;;
21128;SDS011;10722;51.910;8.352;2023-12-04T09:17:51;21.40;;;11.10;;
21128;SDS011;10722;51.910;8.352;2023-12-04T09:20:36;23.57;;;11.33;;
21128;SDS011;10722;51.910;8.352;2023-12-04T09:23:22;21.90;;;10.60;;
21128;SDS011;10722;51.910;8.352;2023-12-04T09:26:08;23.33;;;11.77;;
21128;SDS011;10722;51.910;8.352;2023-12-04T09:28:53;22.60;;;10.77;;
21128;SDS011;10722;51.910;8.352;2023-12-04T09:31:38;28.63;;;14.00;;
21128;SDS011;10722;51.910;8.352;2023-12-04T09:34:23;22.17;;;10.80;;
21128;SDS011;10722;51.910;8.352;2023-12-04T09:37:08;21.73;;;10.57;;
21128;SDS011;10722;51.910;8.352;2023-12-04T09:39:56;20.97;;;10.23;;
21128;SDS011;10722;51.910;8.352;2023-12-04T09:42:41;21.67;;;10.57;;
21128;SDS011;10722;51.910;8.352;2023-12-04T09:45:27;22.00;;;10.50;;
21128;SDS011;10722;51.910;8.352;2023-12-04T09:48:14;22.13;;;10.83;;
21128;SDS011;10722;51.910;8.352;2023-12-04T09:50:59;22.70;;;11.20;;
21128;SDS011;10722;51.910;8.352;2023-12-04T09:53:46;23.10;;;10.50;;
21128;SDS011;10722;51.910;8.352;2023-12-04T09:56:35;21.00;;;10.07;;
21128;SDS011;10722;51.910;8.352;2023-12-04T09:59:23;21.13;;;10.20;;
21128;SDS011;10722;51.910;8.352;2023-12-04T10:02:09;21.40;;;9.97;;
21128;SDS011;10722;51.910;8.352;2023-12-04T10:04:55;22.17;;;10.00;;
21128;SDS011;10722;51.910;8.352;2023-12-04T10:07:40;21.10;;;10.07;;
21128;SDS011;10722;51.910;8.352;2023-12-04T10:10:26;21.00;;;9.70;;
21128;SDS011;10722;51.910;8.352;2023-12-04T10:13:11;19.60;;;9.40;;
21128;SDS011;10722;51.910;8.352;2023-12-04T10:15:57;21.13;;;10.10;;
21128;SDS011;10722;51.910;8.352;2023-12-04T10:18:42;21.07;;;10.13;;
21128;SDS011;10722;51.910;8.352;2023-12-04T10:21:32;22.33;;;10.47;;
21128;SDS011;10722;51.910;8.352;2023-12-04T10:27:19;19.97;;;9.43;;
21128;SDS011;10722;51.910;8.352;2023-12-04T10:30:27;19.97;;;10.07;;
21128;SDS011;10722;51.910;8.352;2023-12-04T10:33:13;20.63;;;9.57;;
21128;SDS011;10722;51.910;8.352;2023-12-04T10:35:59;21.77;;;10.77;;
21128;SDS011;10722;51.910;8.352;2023-12-04T10:38:44;20.97;;;10.23;;
21128;SDS011;10722;51.910;8.352;2023-12-04T10:41:32;19.80;;;9.30;;
21128;SDS011;10722;51.910;8.352;2023-12-04T10:44:17;20.07;;;9.77;;
21128;SDS011;10722;51.910;8.352;2023-12-04T10:47:02;21.77;;;9.67;;
21128;SDS011;10722;51.910;8.352;2023-12-04T10:49:51;20.37;;;10.50;;
21128;SDS011;10722;51.910;8.352;2023-12-04T10:52:36;21.33;;;10.70;;
21128;SDS011;10722;51.910;8.352;2023-12-04T10:55:23;20.80;;;10.33;;
21128;SDS011;10722;51.910;8.352;2023-12-04T10:58:09;19.93;;;10.13;;
21128;SDS011;10722;51.910;8.352;2023-12-04T11:00:56;22.87;;;11.13;;
21128;SDS011;10722;51.910;8.352;2023-12-04T11:03:47;22.83;;;10.87;;
21128;SDS011;10722;51.910;8.352;2023-12-04T11:06:35;22.23;;;11.23;;
21128;SDS011;10722;51.910;8.352;2023-12-04T11:09:24;21.60;;;10.73;;
21128;SDS011;10722;51.910;8.352;2023-12-04T11:12:11;22.83;;;11.20;;
21128;SDS011;10722;51.910;8.352;2023-12-04T11:14:59;22.37;;;10.87;;
21128;SDS011;10722;51.910;8.352;2023-12-04T11:17:49;22.00;;;11.00;;
21128;SDS011;10722;51.910;8.352;2023-12-04T11:21:14;23.10;;;10.80;;
21128;SDS011;10722;51.910;8.352;2023-12-04T11:23:55;22.63;;;11.00;;
21128;SDS011;10722;51.910;8.352;2023-12-04T11:26:41;25.00;;;12.00;;
21128;SDS011;10722;51.910;8.352;2023-12-04T11:29:27;23.60;;;11.90;;
21128;SDS011;10722;51.910;8.352;2023-12-04T11:32:14;22.93;;;11.33;;
21128;SDS011;10722;51.910;8.352;2023-12-04T11:35:00;24.37;;;12.13;;
21128;SDS011;10722;51.910;8.352;2023-12-04T11:37:46;24.10;;;11.87;;
21128;SDS011;10722;51.910;8.352;2023-12-04T11:40:31;24.63;;;12.27;;
21128;SDS011;10722;51.910;8.352;2023-12-04T11:43:21;22.50;;;11.00;;
21128;SDS011;10722;51.910;8.352;2023-12-04T11:46:07;25.37;;;11.83;;
21128;SDS011;10722;51.910;8.352;2023-12-04T11:48:57;23.03;;;11.43;;
21128;SDS011;10722;51.910;8.352;2023-12-04T11:52:05;23.33;;;10.93;;
21128;SDS011;10722;51.910;8.352;2023-12-04T11:54:58;23.97;;;11.07;;
21128;SDS011;10722;51.910;8.352;2023-12-04T11:57:45;21.90;;;10.80;;
21128;SDS011;10722;51.910;8.352;2023-12-04T12:00:30;29.33;;;14.47;;
21128;SDS011;10722;51.910;8.352;2023-12-04T12:03:15;22.47;;;10.13;;
21128;SDS011;10722;51.910;8.352;2023-12-04T12:06:07;20.27;;;10.13;;
21128;SDS011;10722;51.910;8.352;2023-12-04T12:08:53;21.97;;;11.03;;
21128;SDS011;10722;51.910;8.352;2023-12-04T12:11:40;23.13;;;11.03;;
21128;SDS011;10722;51.910;8.352;2023-12-04T12:14:25;22.70;;;10.13;;
21128;SDS011;10722;51.910;8.352;2023-12-04T12:17:10;23.43;;;11.30;;
21128;SDS011;10722;51.910;8.352;2023-12-04T12:19:55;23.23;;;10.73;;
21128;SDS011;10722;51.910;8.352;2023-12-04T12:22:40;23.07;;;11.33;;
21128;SDS011;10722;51.910;8.352;2023-12-04T12:25:25;20.73;;;10.50;;
21128;SDS011;10722;51.910;8.352;2023-12-04T12:28:11;24.63;;;11.40;;
21128;SDS011;10722;51.910;8.352;2023-12-04T12:30:56;22.60;;;11.37;;
21128;SDS011;10722;51.910;8.352;2023-12-04T12:33:41;21.47;;;11.07;;
21128;SDS011;10722;51.910;8.352;2023-12-04T12:36:26;22.23;;;11.00;;
21128;SDS011;10722;51.910;8.352;2023-12-04T12:39:11;21.87;;;10.50;;
21128;SDS011;10722;51.910;8.352;2023-12-04T12:41:56;21.03;;;10.33;;
21128;SDS011;10722;51.910;8.352;2023-12-04T12:44:41;25.90;;;11.43;;
21128;SDS011;10722;51.910;8.352;2023-12-04T12:47:26;25.07;;;12.60;;
21128;SDS011;10722;51.910;8.352;2023-12-04T12:50:12;21.93;;;11.10;;
21128;SDS011;10722;51.910;8.352;2023-12-04T12:52:57;22.07;;;11.40;;
21128;SDS011;10722;51.910;8.352;2023-12-04T12:55:42;21.13;;;10.40;;
21128;SDS011;10722;51.910;8.352;2023-12-04T12:58:28;22.53;;;10.97;;
21128;SDS011;10722;51.910;8.352;2023-12-04T13:01:13;21.83;;;10.90;;
21128;SDS011;10722;51.910;8.352;2023-12-04T13:04:00;23.10;;;11.17;;
21128;SDS011;10722;51.910;8.352;2023-12-04T13:06:45;23.73;;;11.73;;
21128;SDS011;10722;51.910;8.352;2023-12-04T13:09:31;22.70;;;11.50;;
21128;SDS011;10722;51.910;8.352;2023-12-04T13:12:16;20.87;;;11.00;;
21128;SDS011;10722;51.910;8.352;2023-12-04T13:15:01;22.17;;;10.70;;
21128;SDS011;10722;51.910;8.352;2023-12-04T13:17:46;22.13;;;11.27;;
21128;SDS011;10722;51.910;8.352;2023-12-04T13:20:31;21.10;;;10.20;;
21128;SDS011;10722;51.910;8.352;2023-12-04T13:23:16;21.10;;;10.40;;
21128;SDS011;10722;51.910;8.352;2023-12-04T13:26:01;21.80;;;10.90;;
21128;SDS011;10722;51.910;8.352;2023-12-04T13:28:46;23.33;;;11.27;;
21128;SDS011;10722;51.910;8.352;2023-12-04T13:31:33;22.77;;;10.37;;
21128;SDS011;10722;51.910;8.352;2023-12-04T13:34:19;20.93;;;10.17;;
21128;SDS011;10722;51.910;8.352;2023-12-04T13:37:04;21.93;;;10.13;;
21128;SDS011;10722;51.910;8.352;2023-12-04T13:39:50;23.80;;;11.00;;
21128;SDS011;10722;51.910;8.352;2023-12-04T13:42:35;22.63;;;10.83;;
21128;SDS011;10722;51.910;8.352;2023-12-04T13:45:19;20.77;;;10.10;;
21128;SDS011;10722;51.910;8.352;2023-12-04T13:48:05;22.27;;;11.50;;
21128;SDS011;10722;51.910;8.352;2023-12-04T13:50:51;22.97;;;10.73;;
21128;SDS011;10722;51.910;8.352;2023-12-04T13:53:35;21.67;;;10.90;;
21128;SDS011;10722;51.910;8.352;2023-12-04T13:56:21;21.63;;;10.00;;
21128;SDS011;10722;51.910;8.352;2023-12-04T13:59:06;20.87;;;11.00;;
21128;SDS011;10722;51.910;8.352;2023-12-04T14:01:52;21.57;;;10.77;;
21128;SDS011;10722;51.910;8.352;2023-12-04T14:04:37;20.13;;;10.13;;
21128;SDS011;10722;51.910;8.352;2023-12-04T14:07:23;21.33;;;9.77;;
21128;SDS011;10722;51.910;8.352;2023-12-04T14:10:09;21.97;;;10.40;;
21128;SDS011;10722;51.910;8.352;2023-12-04T14:12:54;21.63;;;10.80;;
21128;SDS011;10722;51.910;8.352;2023-12-04T14:15:43;21.83;;;10.57;;
21128;SDS011;10722;51.910;8.352;2023-12-04T14:18:28;20.37;;;10.57;;
21128;SDS011;10722;51.910;8.352;2023-12-04T14:21:13;21.93;;;10.33;;
21128;SDS011;10722;51.910;8.352;2023-12-04T14:23:58;22.43;;;11.17;;
21128;SDS011;10722;51.910;8.352;2023-12-04T14:26:43;21.77;;;10.33;;
21128;SDS011;10722;51.910;8.352;2023-12-04T14:29:29;22.17;;;11.47;;
21128;SDS011;10722;51.910;8.352;2023-12-04T14:32:14;24.00;;;12.37;;
21128;SDS011;10722;51.910;8.352;2023-12-04T14:34:59;21.47;;;10.70;;
21128;SDS011;10722;51.910;8.352;2023-12-04T14:37:44;22.97;;;10.97;;
21128;SDS011;10722;51.910;8.352;2023-12-04T14:40:29;23.33;;;11.53;;
21128;SDS011;10722;51.910;8.352;2023-12-04T14:43:14;24.50;;;12.07;;
21128;SDS011;10722;51.910;8.352;2023-12-04T14:45:59;23.20;;;11.47;;
21128;SDS011;10722;51.910;8.352;2023-12-04T14:48:44;22.63;;;11.03;;
21128;SDS011;10722;51.910;8.352;2023-12-04T14:51:29;24.20;;;12.23;;
21128;SDS011;10722;51.910;8.352;2023-12-04T14:54:14;47.40;;;22.47;;
21128;SDS011;10722;51.910;8.352;2023-12-04T14:57:00;23.20;;;11.63;;
21128;SDS011;10722;51.910;8.352;2023-12-04T14:59:45;22.70;;;12.00;;
21128;SDS011;10722;51.910;8.352;2023-12-04T15:02:30;29.73;;;14.30;;
21128;SDS011;10722;51.910;8.352;2023-12-04T15:05:15;30.83;;;14.57;;
21128;SDS011;10722;51.910;8.352;2023-12-04T15:08:01;24.47;;;11.97;;
21128;SDS011;10722;51.910;8.352;2023-12-04T15:10:46;68.53;;;24.37;;
21128;SDS011;10722;51.910;8.352;2023-12-04T15:13:31;22.73;;;11.90;;
21128;SDS011;10722;51.910;8.352;2023-12-04T15:16:16;24.43;;;12.47;;
21128;SDS011;10722;51.910;8.352;2023-12-04T15:19:01;24.43;;;12.90;;
21128;SDS011;10722;51.910;8.352;2023-12-04T15:21:46;24.00;;;12.83;;
21128;SDS011;10722;51.910;8.352;2023-12-04T15:24:31;26.27;;;13.40;;
21128;SDS011;10722;51.910;8.352;2023-12-04T15:27:16;23.90;;;12.43;;
21128;SDS011;10722;51.910;8.352;2023-12-04T15:30:02;24.33;;;12.63;;
21128;SDS011;10722;51.910;8.352;2023-12-04T15:32:48;25.93;;;12.50;;
21128;SDS011;10722;51.910;8.352;2023-12-04T15:35:33;26.50;;;13.93;;
21128;SDS011;10722;51.910;8.352;2023-12-04T15:38:18;26.17;;;13.87;;
21128;SDS011;10722;51.910;8.352;2023-12-04T15:41:04;26.00;;;13.13;;
21128;SDS011;10722;51.910;8.352;2023-12-04T15:43:49;26.13;;;13.93;;
21128;SDS011;10722;51.910;8.352;2023-12-04T15:46:34;27.30;;;14.10;;
21128;SDS011;10722;51.910;8.352;2023-12-04T15:49:19;29.00;;;14.87;;
21128;SDS011;10722;51.910;8.352;2023-12-04T15:52:05;29.87;;;14.90;;
21128;SDS011;10722;51.910;8.352;2023-12-04T15:54:50;27.53;;;13.20;;
21128;SDS011;10722;51.910;8.352;2023-12-04T15:57:36;29.63;;;15.03;;
21128;SDS011;10722;51.910;8.352;2023-12-04T16:00:21;27.60;;;14.10;;
21128;SDS011;10722;51.910;8.352;2023-12-04T16:03:07;29.70;;;14.67;;
21128;SDS011;10722;51.910;8.352;2023-12-04T16:05:53;26.73;;;14.07;;
21128;SDS011;10722;51.910;8.352;2023-12-04T16:08:38;29.07;;;14.77;;
21128;SDS011;10722;51.910;8.352;2023-12-04T16:11:23;26.40;;;13.43;;